Time;durP1;ratioP1;P1;durP2;ratioP2;P2;SDS_P1;SDS_P2;PMS_P1;PMS_P2;Temp;Humidity;BMP_temperature;BMP_pressure;BME280_temperature;BME280_humidity;BME280_pressure;Samples;Min_cycle;Max_cycle;Signal;HPM_P1;HPM_P2
2022/12/03 00:02:08;;;;;;;1999.90;999.90;;;5.00;99.90;;;;;;5055130;28;20083;-75
2022/12/03 00:04:34;;;;;;;1999.90;999.90;;;5.00;99.90;;;;;;5074590;28;20044;-77
2022/12/03 00:07:00;;;;;;;1999.90;999.90;;;5.00;99.90;;;;;;5073089;28;20059;-76
2022/12/03 00:09:25;;;;;;;1999.90;999.90;;;5.10;99.90;;;;;;5074120;28;20104;-77
2022/12/03 00:11:51;;;;;;;1999.90;999.90;;;5.00;99.90;;;;;;5074316;28;20028;-76
2022/12/03 00:14:17;;;;;;;1999.90;999.90;;;5.00;99.90;;;;;;5072612;28;20028;-75
2022/12/03 00:16:42;;;;;;;1999.90;999.90;;;5.00;99.90;;;;;;5072790;28;20082;-77
2022/12/03 00:19:08;;;;;;;1999.90;999.90;;;5.10;99.90;;;;;;5074483;28;20029;-75
2022/12/03 00:21:33;;;;;;;1999.90;999.90;;;5.00;99.90;;;;;;5073820;28;20025;-77
2022/12/03 00:23:59;;;;;;;1999.90;999.90;;;5.10;99.90;;;;;;5074057;28;20107;-75
2022/12/03 00:26:25;;;;;;;1999.90;999.90;;;5.00;99.90;;;;;;5073648;28;20388;-75
2022/12/03 00:28:51;;;;;;;1999.90;999.90;;;5.10;99.90;;;;;;5070343;28;20047;-77
2022/12/03 00:31:17;;;;;;;1999.90;999.90;;;5.10;99.90;;;;;;5073996;28;20032;-75
2022/12/03 00:33:42;;;;;;;1999.90;999.90;;;5.00;99.90;;;;;;5059449;28;20039;-77
2022/12/03 00:36:08;;;;;;;1999.90;999.90;;;5.00;99.90;;;;;;5053705;28;20029;-77
2022/12/03 00:38:34;;;;;;;1999.90;999.90;;;5.10;99.90;;;;;;5053728;28;20112;-75
2022/12/03 00:41:00;;;;;;;1999.90;999.90;;;5.10;99.90;;;;;;5051970;28;20024;-75
2022/12/03 00:43:25;;;;;;;1999.90;999.90;;;5.10;99.90;;;;;;5053353;28;20031;-75
2022/12/03 00:45:51;;;;;;;1999.90;999.90;;;5.00;99.90;;;;;;5090450;28;20040;-74
2022/12/03 00:48:16;;;;;;;1999.90;999.90;;;5.00;99.90;;;;;;5093924;28;20067;-77
2022/12/03 00:50:52;;;;;;;1999.90;999.90;;;4.90;99.90;;;;;;5092301;28;20119;-75
2022/12/03 00:53:18;;;;;;;1999.90;999.90;;;4.90;99.90;;;;;;5092577;28;20032;-75
2022/12/03 00:55:44;;;;;;;1999.90;999.90;;;4.90;99.90;;;;;;5091813;28;20089;-76
2022/12/03 00:58:09;;;;;;;1999.90;999.90;;;4.90;99.90;;;;;;5076594;28;20408;-77
2022/12/03 01:00:36;;;;;;;1999.90;999.90;;;4.90;99.90;;;;;;5071949;28;20116;-77
2022/12/03 01:03:02;;;;;;;1999.90;999.90;;;4.90;99.90;;;;;;5072130;28;20021;-75
2022/12/03 01:05:28;;;;;;;1999.90;999.90;;;4.90;99.90;;;;;;5073339;28;20020;-75
2022/12/03 01:07:53;;;;;;;1999.90;999.90;;;4.90;99.90;;;;;;5073437;28;20020;-77
2022/12/03 01:10:19;;;;;;;1999.90;999.90;;;4.80;99.90;;;;;;5072682;28;20017;-76
2022/12/03 01:12:45;;;;;;;1999.90;999.90;;;4.90;99.90;;;;;;5072872;28;20142;-77
2022/12/03 01:15:11;;;;;;;1999.90;999.90;;;4.90;99.90;;;;;;5071581;28;20024;-77
2022/12/03 01:17:37;;;;;;;1999.90;999.90;;;4.80;99.90;;;;;;5072147;28;20117;-75
2022/12/03 01:20:07;;;;;;;1999.90;999.90;;;4.80;99.90;;;;;;5071320;28;20035;-77
2022/12/03 01:22:33;;;;;;;1999.90;999.90;;;4.80;99.90;;;;;;5072912;28;20027;-76
2022/12/03 01:24:59;;;;;;;1999.90;999.90;;;4.80;99.90;;;;;;5072327;28;20048;-75
2022/12/03 01:27:25;;;;;;;1999.90;999.90;;;4.80;99.90;;;;;;5071774;28;20420;-75
2022/12/03 01:29:50;;;;;;;1999.90;999.90;;;4.70;99.90;;;;;;5066102;28;20441;-76
2022/12/03 01:32:16;;;;;;;1999.90;999.90;;;4.70;99.90;;;;;;5073309;28;20029;-75
2022/12/03 01:34:47;;;;;;;1999.90;999.90;;;4.80;99.90;;;;;;5072907;28;20028;-75
2022/12/03 01:37:13;;;;;;;1999.90;999.90;;;4.70;99.90;;;;;;5072897;28;20032;-76
2022/12/03 01:39:39;;;;;;;1999.90;999.90;;;4.80;99.90;;;;;;5072108;28;20056;-77
2022/12/03 01:42:07;;;;;;;1999.90;999.90;;;4.80;99.90;;;;;;5072305;28;20059;-76
2022/12/03 01:44:35;;;;;;;1999.90;999.90;;;4.70;99.90;;;;;;5078554;28;20207;-75
2022/12/03 01:47:04;;;;;;;1999.90;999.90;;;4.70;99.90;;;;;;5091748;28;20070;-76
2022/12/03 01:49:43;;;;;;;1999.90;999.90;;;4.80;99.90;;;;;;5092489;28;20499;-76
2022/12/03 01:52:15;;;;;;;1999.90;999.90;;;4.60;99.90;;;;;;5091514;28;20024;-75
2022/12/03 01:54:54;;;;;;;1999.90;999.90;;;4.70;99.90;;;;;;5091182;28;20467;-75
2022/12/03 01:57:22;;;;;;;1999.90;999.90;;;4.70;99.90;;;;;;5075144;28;20516;-75
2022/12/03 01:59:49;;;;;;;1999.90;999.90;;;4.70;99.90;;;;;;5050580;28;20043;-75
2022/12/03 02:02:29;;;;;;;1999.90;999.90;;;4.70;99.90;;;;;;5052368;28;20017;-74
2022/12/03 02:04:56;;;;;;;1999.90;999.90;;;4.70;99.90;;;;;;5051383;28;20337;-76
2022/12/03 02:07:30;;;;;;;1999.90;999.90;;;4.70;99.90;;;;;;5051191;28;20024;-75
2022/12/03 02:09:59;;;;;;;1999.90;999.90;;;4.70;99.90;;;;;;5083596;28;20029;-75
2022/12/03 02:12:34;;;;;;;1999.90;999.90;;;4.70;99.90;;;;;;5084142;28;20417;-76
2022/12/03 02:15:01;;;;;;;1999.90;999.90;;;4.60;99.90;;;;;;5051196;28;20033;-75
2022/12/03 02:17:27;;;;;;;1999.90;999.90;;;4.60;99.90;;;;;;5050723;28;20496;-75
2022/12/03 02:19:54;;;;;;;1999.90;999.90;;;4.60;99.90;;;;;;5052129;28;20035;-76
2022/12/03 02:22:44;;;;;;;1999.90;999.90;;;4.60;99.90;;;;;;5051837;28;20021;-75
2022/12/03 02:25:15;;;;;;;1999.90;999.90;;;4.60;99.90;;;;;;5051944;28;20029;-75
2022/12/03 02:27:41;;;;;;;1999.90;999.90;;;4.60;99.90;;;;;;5052655;28;20013;-75
2022/12/03 02:30:08;;;;;;;1999.90;999.90;;;4.60;99.90;;;;;;5070665;28;20480;-75
2022/12/03 02:32:33;;;;;;;1999.90;999.90;;;4.60;99.90;;;;;;5071921;28;20051;-75
2022/12/03 02:34:59;;;;;;;1999.90;999.90;;;4.70;99.90;;;;;;5072086;28;20487;-75
2022/12/03 02:37:36;;;;;;;1999.90;999.90;;;4.70;99.90;;;;;;5072037;28;20027;-75
2022/12/03 02:40:06;;;;;;;1999.90;999.90;;;4.70;99.90;;;;;;5071384;28;20111;-76
2022/12/03 02:42:35;;;;;;;1999.90;999.90;;;4.70;99.90;;;;;;5071947;28;20025;-75
2022/12/03 02:45:12;;;;;;;1999.90;999.90;;;4.70;99.90;;;;;;5081599;28;20065;-75
2022/12/03 02:47:51;;;;;;;1999.90;999.90;;;4.70;99.90;;;;;;5092210;28;20414;-75
2022/12/03 02:50:22;;;;;;;1999.90;999.90;;;4.70;99.90;;;;;;5091740;28;20517;-75
2022/12/03 02:52:49;;;;;;;1999.90;999.90;;;4.70;99.90;;;;;;5092093;28;20495;-75
2022/12/03 02:55:16;;;;;;;1999.90;999.90;;;4.70;99.90;;;;;;5092071;28;20028;-77
2022/12/03 02:57:45;;;;;;;1999.90;999.90;;;4.70;99.90;;;;;;5075222;28;20029;-75
2022/12/03 03:00:11;;;;;;;1999.90;999.90;;;4.60;99.90;;;;;;5051614;28;20171;-75
2022/12/03 03:02:39;;;;;;;1999.90;999.90;;;4.60;99.90;;;;;;5051823;28;20028;-75
2022/12/03 03:05:06;;;;;;;1999.90;999.90;;;4.60;99.90;;;;;;5050700;28;20029;-75
2022/12/03 03:07:33;;;;;;;1999.90;999.90;;;4.70;99.90;;;;;;5051445;28;20404;-75
2022/12/03 03:09:59;;;;;;;1999.90;999.90;;;4.70;99.90;;;;;;5051099;28;20083;-75
2022/12/03 03:12:25;;;;;;;1999.90;999.90;;;4.60;99.90;;;;;;5051383;28;20049;-75
2022/12/03 03:14:51;;;;;;;1999.90;999.90;;;4.60;99.90;;;;;;5051486;28;20477;-75
2022/12/03 03:17:17;;;;;;;1999.90;999.90;;;4.70;99.90;;;;;;5051575;28;20075;-75
2022/12/03 03:19:42;;;;;;;1999.90;999.90;;;4.70;99.90;;;;;;5049890;28;20562;-75
2022/12/03 03:22:11;;;;;;;1999.90;999.90;;;4.60;99.90;;;;;;5053958;28;20029;-75
2022/12/03 03:24:37;;;;;;;1999.90;999.90;;;4.60;99.90;;;;;;5054793;28;20036;-75
2022/12/03 03:27:03;;;;;;;1999.90;999.90;;;4.70;99.90;;;;;;5055104;28;20025;-75
2022/12/03 03:29:31;;;;;;;1999.90;999.90;;;4.60;99.90;;;;;;5070242;28;20027;-75
2022/12/03 03:31:57;;;;;;;1999.90;999.90;;;4.70;99.90;;;;;;5070872;28;20033;-77
2022/12/03 03:34:23;;;;;;;1999.90;999.90;;;4.70;99.90;;;;;;5065558;28;20446;-75
2022/12/03 03:36:48;;;;;;;1999.90;999.90;;;4.70;99.90;;;;;;5055255;28;20033;-75
2022/12/03 03:39:14;;;;;;;1999.90;999.90;;;4.70;99.90;;;;;;5053185;28;20040;-75
2022/12/03 03:41:42;;;;;;;1999.90;999.90;;;4.70;99.90;;;;;;5054592;28;20025;-75
2022/12/03 03:44:08;;;;;;;1999.90;999.90;;;4.60;99.90;;;;;;5059328;28;20380;-75
2022/12/03 03:46:35;;;;;;;1999.90;999.90;;;4.60;99.90;;;;;;5095088;28;20423;-75
2022/12/03 03:49:03;;;;;;;1999.90;999.90;;;4.60;99.90;;;;;;5095069;28;20070;-75
2022/12/03 03:51:30;;;;;;;1999.90;999.90;;;4.60;99.90;;;;;;5094920;28;20146;-77
2022/12/03 03:53:56;;;;;;;1999.90;999.90;;;4.60;99.90;;;;;;5093651;28;20093;-77
2022/12/03 03:56:22;;;;;;;1999.90;999.90;;;4.60;99.90;;;;;;5094655;28;20024;-75
2022/12/03 03:58:48;;;;;;;1999.90;999.90;;;4.70;99.90;;;;;;5083918;28;20028;-75
2022/12/03 04:01:14;;;;;;;1999.90;999.90;;;4.60;99.90;;;;;;5073204;28;20035;-76
2022/12/03 04:03:40;;;;;;;1999.90;999.90;;;4.60;99.90;;;;;;5072612;28;20080;-75
2022/12/03 04:06:06;;;;;;;1999.90;999.90;;;4.60;99.90;;;;;;5073665;28;20106;-76
2022/12/03 04:08:32;;;;;;;1999.90;999.90;;;4.70;99.90;;;;;;5073163;28;20111;-75
2022/12/03 04:13:41;;;;;;;1999.90;999.90;;;4.70;99.90;;;;;;5074199;28;20023;-75
2022/12/03 04:16:07;;;;;;;1999.90;999.90;;;4.70;99.90;;;;;;5073342;28;20028;-75
2022/12/03 04:18:41;;;;;;;1999.90;999.90;;;4.60;99.90;;;;;;5074469;28;20376;-76
2022/12/03 04:24:02;;;;;;;1999.90;999.90;;;4.60;99.90;;;;;;5074135;28;20070;-74
2022/12/03 04:29:12;;;;;;;1999.90;999.90;;;4.60;99.90;;;;;;5069913;28;20399;-75
2022/12/03 04:37:08;;;;;;;1999.90;999.90;;;4.60;99.90;;;;;;5074167;28;20032;-75
2022/12/03 04:39:34;;;;;;;1999.90;999.90;;;4.50;99.90;;;;;;5072061;28;20029;-75
2022/12/03 04:42:00;;;;;;;1999.90;999.90;;;4.60;99.90;;;;;;5073467;28;20078;-76
2022/12/03 04:44:38;;;;;;;1999.90;999.90;;;4.60;99.90;;;;;;5078185;28;20102;-75
2022/12/03 04:47:05;;;;;;;1999.90;999.90;;;4.50;99.90;;;;;;5093121;28;20017;-75
2022/12/03 04:49:31;;;;;;;1999.90;999.90;;;4.50;99.90;;;;;;5093564;28;20028;-76
2022/12/03 04:51:57;;;;;;;1999.90;999.90;;;4.50;99.90;;;;;;5093739;28;20103;-75
2022/12/03 04:54:22;;;;;;;1999.90;999.90;;;4.40;99.90;;;;;;5092214;28;20123;-75
2022/12/03 04:56:48;;;;;;;1999.90;999.90;;;4.40;99.90;;;;;;5092445;28;20441;-75
2022/12/03 04:59:14;;;;;;;1999.90;999.90;;;4.50;99.90;;;;;;5064529;28;20476;-76
2022/12/03 05:01:39;;;;;;;1999.90;999.90;;;4.50;99.90;;;;;;5053339;28;20043;-75
2022/12/03 05:04:05;;;;;;;1999.90;999.90;;;4.50;99.90;;;;;;5070243;28;20509;-75
2022/12/03 05:06:31;;;;;;;1999.90;999.90;;;4.40;99.90;;;;;;5073250;28;20025;-75
2022/12/03 05:08:57;;;;;;;1999.90;999.90;;;4.40;99.90;;;;;;5072529;28;20468;-75
2022/12/03 05:11:23;;;;;;;1999.90;999.90;;;4.40;99.90;;;;;;5072443;28;20534;-76
2022/12/03 05:13:50;;;;;;;1999.90;999.90;;;4.40;99.90;;;;;;5072697;28;20396;-76
2022/12/03 05:16:15;;;;;;;1999.90;999.90;;;4.50;99.90;;;;;;5073004;28;20107;-75
2022/12/03 05:18:41;;;;;;;1999.90;999.90;;;4.40;99.90;;;;;;5072759;28;20502;-76
2022/12/03 05:21:07;;;;;;;1999.90;999.90;;;4.40;99.90;;;;;;5072815;28;20031;-76
2022/12/03 05:23:32;;;;;;;1999.90;999.90;;;4.40;99.90;;;;;;5072330;28;20016;-75
2022/12/03 05:25:58;;;;;;;1999.90;999.90;;;4.40;99.90;;;;;;5072383;28;20028;-76
2022/12/03 05:28:23;;;;;;;1999.90;999.90;;;4.50;99.90;;;;;;5068202;28;20486;-75
2022/12/03 05:30:50;;;;;;;1999.90;999.90;;;4.50;99.90;;;;;;5072703;28;20407;-75
2022/12/03 05:33:16;;;;;;;1999.90;999.90;;;4.50;99.90;;;;;;5071577;28;20446;-76
2022/12/03 05:35:41;;;;;;;1999.90;999.90;;;4.50;99.90;;;;;;5072577;28;20032;-75
2022/12/03 05:38:07;;;;;;;1999.90;999.90;;;4.50;99.90;;;;;;5072606;28;20399;-75
2022/12/03 05:40:33;;;;;;;1999.90;999.90;;;4.50;99.90;;;;;;5072590;28;20463;-75
2022/12/03 05:43:00;;;;;;;1999.90;999.90;;;4.40;99.90;;;;;;5080894;28;20096;-75
2022/12/03 05:45:30;;;;;;;1999.90;999.90;;;4.40;99.90;;;;;;5094672;28;20429;-75
2022/12/03 05:47:58;;;;;;;1999.90;999.90;;;4.30;99.90;;;;;;5100170;28;20020;-76
2022/12/03 05:50:27;;;;;;;1999.90;999.90;;;4.20;99.90;;;;;;5093501;28;20125;-76
2022/12/03 05:52:53;;;;;;;1999.90;999.90;;;4.20;99.90;;;;;;5093211;28;20020;-76
2022/12/03 05:55:19;;;;;;;1999.90;999.90;;;4.20;99.90;;;;;;5091153;28;20501;-75
2022/12/03 05:57:45;;;;;;;1999.90;999.90;;;4.20;99.90;;;;;;5088400;28;20483;-76
2022/12/03 06:00:32;;;;;;;1999.90;999.90;;;4.10;99.90;;;;;;5051956;28;20028;-73
2022/12/03 06:02:58;;;;;;;1999.90;999.90;;;4.10;99.90;;;;;;5060344;28;20016;-75
2022/12/03 06:05:24;;;;;;;1999.90;999.90;;;4.10;99.90;;;;;;5072481;28;20418;-75
2022/12/03 06:07:51;;;;;;;1999.90;999.90;;;4.10;99.90;;;;;;5072253;28;20029;-74
2022/12/03 06:10:21;;;;;;;1999.90;999.90;;;4.00;99.90;;;;;;5072003;28;20137;-74
2022/12/03 06:12:47;;;;;;;1999.90;999.90;;;4.00;99.90;;;;;;5072208;28;20103;-76
2022/12/03 06:15:14;;;;;;;1999.90;999.90;;;4.00;99.90;;;;;;5072131;28;20099;-74
2022/12/03 06:17:40;;;;;;;1999.90;999.90;;;4.00;99.90;;;;;;5071987;28;20066;-74
2022/12/03 06:20:07;;;;;;;1999.90;999.90;;;3.90;99.90;;;;;;5071042;28;20035;-75
2022/12/03 06:22:32;;;;;;;1999.90;999.90;;;3.80;99.90;;;;;;5072130;28;20025;-74
2022/12/03 06:24:58;;;;;;;1999.90;999.90;;;3.80;99.90;;;;;;5071786;28;20089;-74
2022/12/03 06:27:23;;;;;;;1999.90;999.90;;;3.70;99.90;;;;;;5070182;28;20024;-74
2022/12/03 06:29:49;;;;;;;1999.90;999.90;;;3.70;99.90;;;;;;5068120;28;20468;-73
2022/12/03 06:32:15;;;;;;;1999.90;999.90;;;3.80;99.90;;;;;;5071990;28;20020;-74
2022/12/03 06:34:40;;;;;;;1999.90;999.90;;;3.80;99.90;;;;;;5072473;28;20372;-74
2022/12/03 06:37:06;;;;;;;1999.90;999.90;;;3.70;99.90;;;;;;5072159;28;20027;-74
2022/12/03 06:39:32;;;;;;;1999.90;999.90;;;3.70;99.90;;;;;;5071571;28;20078;-74
2022/12/03 06:41:57;;;;;;;1999.90;999.90;;;3.70;99.90;;;;;;5071657;28;20021;-75
2022/12/03 06:44:23;;;;;;;1999.90;999.90;;;3.70;99.90;;;;;;5075788;28;20055;-75
2022/12/03 06:46:49;;;;;;;1999.90;999.90;;;3.70;99.90;;;;;;5092351;28;20052;-74
2022/12/03 06:49:14;;;;;;;1999.90;999.90;;;3.70;99.90;;;;;;5091951;28;20028;-75
2022/12/03 06:51:40;;;;;;;1999.90;999.90;;;3.70;99.90;;;;;;5092178;28;20028;-76
2022/12/03 06:54:06;;;;;;;1999.90;999.90;;;3.70;99.90;;;;;;5091657;28;20040;-74
2022/12/03 06:56:31;;;;;;;1999.90;999.90;;;3.80;99.90;;;;;;5095992;28;20020;-74
2022/12/03 06:58:57;;;;;;;1999.90;999.90;;;3.70;99.90;;;;;;5071630;28;20079;-74
2022/12/03 07:01:23;;;;;;;1999.90;999.90;;;3.70;99.90;;;;;;5055456;28;20042;-74
2022/12/03 07:03:49;;;;;;;1999.90;999.90;;;3.80;99.90;;;;;;5070355;28;20071;-75
2022/12/03 07:06:15;;;;;;;1999.90;999.90;;;3.70;99.90;;;;;;5075371;28;20483;-75
2022/12/03 07:08:40;;;;;;;1999.90;999.90;;;3.80;99.90;;;;;;5075697;28;20029;-76
2022/12/03 07:13:51;;;;;;;1999.90;999.90;;;3.80;99.90;;;;;;5075108;28;20423;-74
2022/12/03 07:16:16;;;;;;;1999.90;999.90;;;3.80;99.90;;;;;;5074612;28;20021;-74
2022/12/03 07:18:42;;;;;;;1999.90;999.90;;;3.80;99.90;;;;;;5075364;28;20025;-74
2022/12/03 07:21:07;;;;;;;1999.90;999.90;;;3.80;99.90;;;;;;5074174;28;20070;-75
2022/12/03 07:23:33;;;;;;;1999.90;999.90;;;3.80;99.90;;;;;;5074898;28;20551;-76
2022/12/03 07:25:59;;;;;;;1999.90;999.90;;;3.90;99.90;;;;;;5074893;28;20074;-74
2022/12/03 07:28:24;;;;;;;1999.90;999.90;;;3.80;99.90;;;;;;5069873;28;20052;-74
2022/12/03 07:30:50;;;;;;;1999.90;999.90;;;3.80;99.90;;;;;;5074914;28;20039;-74
2022/12/03 07:33:16;;;;;;;1999.90;999.90;;;3.80;99.90;;;;;;5075012;28;20032;-75
2022/12/03 07:35:41;;;;;;;1999.90;999.90;;;3.80;99.90;;;;;;5074783;28;20028;-75
2022/12/03 07:38:07;;;;;;;1999.90;999.90;;;3.90;99.90;;;;;;5074869;28;20032;-75
2022/12/03 07:40:32;;;;;;;1999.90;999.90;;;3.90;99.90;;;;;;5074719;28;20050;-74
2022/12/03 07:42:58;;;;;;;1999.90;999.90;;;3.90;99.90;;;;;;5074849;28;20032;-74
2022/12/03 07:45:24;;;;;;;1999.90;999.90;;;3.90;99.90;;;;;;5073250;28;20028;-76
2022/12/03 07:47:49;;;;;;;1999.90;999.90;;;3.90;99.90;;;;;;5074630;28;20032;-74
2022/12/03 07:50:15;;;;;;;1999.90;999.90;;;3.90;99.90;;;;;;5074411;28;20052;-74
2022/12/03 07:52:41;;;;;;;1999.90;999.90;;;3.90;99.90;;;;;;5073322;28;20041;-74
2022/12/03 07:55:07;;;;;;;1999.90;999.90;;;3.90;99.90;;;;;;5074464;28;20030;-74
2022/12/03 07:57:32;;;;;;;1999.90;999.90;;;3.90;99.90;;;;;;5073881;28;20044;-74
2022/12/03 07:59:58;;;;;;;1999.90;999.90;;;3.90;99.90;;;;;;5054292;28;20064;-74
2022/12/03 08:02:23;;;;;;;1999.90;999.90;;;4.00;99.90;;;;;;5058107;28;20031;-74
2022/12/03 08:04:49;;;;;;;1999.90;999.90;;;3.90;99.90;;;;;;5074550;28;20596;-74
2022/12/03 08:07:15;;;;;;;1999.90;999.90;;;4.00;99.90;;;;;;5073779;28;20024;-74
2022/12/03 08:09:41;;;;;;;1999.90;999.90;;;4.00;99.90;;;;;;5074291;28;20032;-74
2022/12/03 08:12:15;;;;;;;1999.90;999.90;;;4.00;99.90;;;;;;5074090;28;20035;-74
2022/12/03 08:14:41;;;;;;;1999.90;999.90;;;4.00;99.90;;;;;;5074434;28;20021;-74
2022/12/03 08:17:11;;;;;;;1999.90;999.90;;;4.00;99.90;;;;;;5074289;28;20024;-75
2022/12/03 08:19:37;;;;;;;1999.90;999.90;;;4.10;99.90;;;;;;5073974;28;20540;-74
2022/12/03 08:22:11;;;;;;;1999.90;999.90;;;4.10;99.90;;;;;;5071722;28;20017;-75
2022/12/03 08:24:37;;;;;;;1999.90;999.90;;;4.10;99.90;;;;;;5073687;28;20024;-74
2022/12/03 08:27:13;;;;;;;1999.90;999.90;;;4.10;99.90;;;;;;5074003;28;20070;-74
2022/12/03 08:29:39;;;;;;;1999.90;999.90;;;4.00;99.90;;;;;;5070501;28;20067;-74
2022/12/03 08:32:08;;;;;;;1999.90;999.90;;;4.00;99.90;;;;;;5074021;28;20056;-75
2022/12/03 08:34:39;;;;;;;1999.90;999.90;;;4.00;99.90;;;;;;5073425;28;20057;-74
2022/12/03 08:37:18;;;;;;;1999.90;999.90;;;4.00;99.90;;;;;;5074090;28;20427;-75
2022/12/03 08:39:48;;;;;;;1999.90;999.90;;;4.00;99.90;;;;;;5073065;28;20070;-73
2022/12/03 08:42:40;;;;;;;1999.90;999.90;;;4.00;99.90;;;;;;5072492;28;20399;-75
2022/12/03 08:45:30;;;;;;;1999.90;999.90;;;4.10;99.90;;;;;;5084024;28;20075;-74
2022/12/03 08:48:17;;;;;;;1999.90;999.90;;;4.10;99.90;;;;;;5086150;28;20031;-75
2022/12/03 08:50:43;;;;;;;1999.90;999.90;;;4.00;99.90;;;;;;5082835;28;20439;-74
2022/12/03 08:53:14;;;;;;;1999.90;999.90;;;4.00;99.90;;;;;;5093737;28;20044;-74
2022/12/03 08:55:51;;;;;;;1999.90;999.90;;;4.00;99.90;;;;;;5093218;28;20036;-74
2022/12/03 08:58:45;;;;;;;1999.90;999.90;;;4.00;99.90;;;;;;5086946;28;20017;-74
2022/12/03 09:01:10;;;;;;;;;;;4.00;99.90;;;;;;5071497;28;20044;-74
2022/12/03 09:03:38;;;;;;;1999.90;999.90;;;4.00;99.90;;;;;;5072747;28;19916;-74
2022/12/03 09:06:04;;;;;;;1999.90;999.90;;;4.10;99.90;;;;;;5073409;28;20550;-74
2022/12/03 09:08:30;;;;;;;1999.90;999.90;;;4.10;99.90;;;;;;5073158;28;20539;-74
2022/12/03 09:10:55;;;;;;;1999.90;999.90;;;4.10;99.90;;;;;;5072784;28;20046;-75
2022/12/03 09:13:21;;;;;;;1999.90;999.90;;;4.10;99.90;;;;;;5071397;28;20054;-74
2022/12/03 09:15:47;;;;;;;1999.90;999.90;;;4.20;99.90;;;;;;5072949;28;20032;-74
2022/12/03 09:18:15;;;;;;;1999.90;999.90;;;4.20;99.90;;;;;;5071984;28;20059;-75
2022/12/03 09:20:41;;;;;;;1999.90;999.90;;;4.20;99.90;;;;;;5072956;28;20028;-74
2022/12/03 09:23:07;;;;;;;1999.90;999.90;;;4.30;99.90;;;;;;5070650;28;20021;-74
2022/12/03 09:25:33;;;;;;;1999.90;999.90;;;4.30;99.90;;;;;;5072146;28;20024;-75
2022/12/03 09:27:58;;;;;;;1999.90;999.90;;;4.30;99.90;;;;;;5068803;28;20978;-74
2022/12/03 09:30:24;;;;;;;1999.90;999.90;;;4.30;99.90;;;;;;5072409;28;20031;-75
2022/12/03 09:32:49;;;;;;;1999.90;999.90;;;4.40;99.90;;;;;;5072945;28;20029;-74
2022/12/03 09:35:15;;;;;;;1999.90;999.90;;;4.40;99.90;;;;;;5072445;28;20407;-74
2022/12/03 09:37:41;;;;;;;1999.90;999.90;;;4.40;99.90;;;;;;5072397;28;20029;-74
2022/12/03 09:40:08;;;;;;;1999.90;999.90;;;4.40;99.90;;;;;;5072001;28;20107;-75
2022/12/03 09:42:34;;;;;;;1999.90;999.90;;;4.50;99.90;;;;;;5072622;28;20031;-75
2022/12/03 09:45:01;;;;;;;1999.90;999.90;;;4.60;99.90;;;;;;5082176;28;20024;-74
2022/12/03 09:47:28;;;;;;;1999.90;999.90;;;4.60;99.90;;;;;;5092658;28;20023;-75
2022/12/03 09:49:55;;;;;;;1999.90;999.90;;;4.60;99.90;;;;;;5092505;28;20028;-75
2022/12/03 09:52:26;;;;;;;1999.90;999.90;;;4.60;99.90;;;;;;5093018;28;20081;-74
2022/12/03 09:54:51;;;;;;;1999.90;999.90;;;4.60;99.90;;;;;;5092588;28;20032;-74
2022/12/03 09:57:17;;;;;;;1999.90;999.90;;;4.70;99.90;;;;;;5092612;28;20372;-76
2022/12/03 09:59:43;;;;;;;1999.90;999.90;;;4.70;99.90;;;;;;5085643;28;20550;-75
2022/12/03 10:02:26;;;;;;;1999.90;999.90;;;4.70;99.90;;;;;;5072043;28;20034;-75
2022/12/03 10:04:52;;;;;;;1999.90;999.90;;;4.70;99.90;;;;;;5072455;28;20102;-75
2022/12/03 10:07:18;;;;;;;1999.90;999.90;;;4.80;99.90;;;;;;5072200;28;20035;-74
2022/12/03 10:09:44;;;;;;;1999.90;999.90;;;4.80;99.90;;;;;;5072016;28;20017;-74
2022/12/03 10:12:12;;;;;;;1999.90;999.90;;;4.70;99.90;;;;;;5074665;28;20179;-74
2022/12/03 10:14:38;;;;;;;1999.90;999.90;;;4.70;99.90;;;;;;5074138;28;20498;-74
2022/12/03 10:17:04;;;;;;;1999.90;999.90;;;4.80;99.90;;;;;;5071555;28;20510;-74
2022/12/03 10:19:34;;;;;;;1999.90;999.90;;;4.90;99.90;;;;;;5071383;28;20107;-74
2022/12/03 10:22:00;;;;;;;1999.90;999.90;;;4.90;99.90;;;;;;5071778;28;20428;-76
2022/12/03 10:24:36;;;;;;;1999.90;999.90;;;4.90;99.90;;;;;;5070993;28;20025;-74
2022/12/03 10:27:29;;;;;;;1999.90;999.90;;;4.90;99.90;;;;;;5072091;28;20492;-77
2022/12/03 10:29:59;;;;;;;1999.90;999.90;;;5.00;99.90;;;;;;5067201;28;20064;-74
2022/12/03 10:32:39;;;;;;;1999.90;999.90;;;5.00;99.90;;;;;;5074856;28;20484;-75
2022/12/03 10:35:09;;;;;;;1999.90;999.90;;;5.00;99.90;;;;;;5076360;28;20028;-75
2022/12/03 10:37:34;;;;;;;1999.90;999.90;;;5.10;99.90;;;;;;5075655;28;20491;-74
2022/12/03 10:40:08;;;;;;;1999.90;999.90;;;5.10;99.90;;;;;;5075415;28;20123;-74
2022/12/03 10:42:36;;;;;;;1999.90;999.90;;;5.10;99.90;;;;;;5076168;28;20059;-76
2022/12/03 10:45:18;;;;;;;1999.90;999.90;;;5.20;99.90;;;;;;5085938;28;20498;-74
2022/12/03 10:48:03;;;;;;;1999.90;999.90;;;5.20;99.90;;;;;;5096208;28;20027;-76
2022/12/03 10:50:29;;;;;;;1999.90;999.90;;;5.10;99.90;;;;;;5094570;28;20039;-76
2022/12/03 10:52:55;;;;;;;1999.90;999.90;;;5.20;99.90;;;;;;5096288;28;20032;-74
2022/12/03 10:55:20;;;;;;;1999.90;999.90;;;5.20;99.90;;;;;;5077615;28;20040;-75
2022/12/03 10:57:46;;;;;;;1999.90;999.90;;;5.10;99.90;;;;;;5075549;28;20066;-74
2022/12/03 11:00:19;;;;;;;1999.90;999.90;;;5.10;99.90;;;;;;5070599;28;20040;-74
2022/12/03 11:02:46;;;;;;;1999.90;999.90;;;5.10;99.90;;;;;;5061807;28;20074;-74
2022/12/03 11:05:18;;;;;;;1999.90;999.90;;;5.20;99.90;;;;;;5075581;28;20025;-76
2022/12/03 11:07:44;;;;;;;1999.90;999.90;;;5.10;99.90;;;;;;5075462;28;20091;-75
2022/12/03 11:10:18;;;;;;;1999.90;999.90;;;5.20;99.90;;;;;;5073811;28;20071;-74
2022/12/03 11:13:21;;;;;;;1999.90;999.90;;;5.20;99.90;;;;;;5075658;28;20047;-75
2022/12/03 11:15:47;;;;;;;1999.90;999.90;;;5.30;99.90;;;;;;5075222;28;20036;-75
2022/12/03 11:18:36;;;;;;;1999.90;999.90;;;5.30;99.90;;;;;;5073833;28;20029;-75
2022/12/03 11:21:12;;;;;;;1999.90;999.90;;;5.40;99.90;;;;;;5075025;28;20071;-75
2022/12/03 11:23:44;;;;;;;1999.90;999.90;;;5.40;99.90;;;;;;5074061;28;20119;-75
2022/12/03 11:26:15;;;;;;;1999.90;999.90;;;5.40;99.90;;;;;;5075063;28;20095;-75
2022/12/03 11:28:53;;;;;;;1999.90;999.90;;;5.50;99.90;;;;;;5070639;28;20499;-75
2022/12/03 11:31:38;;;;;;;1999.90;999.90;;;5.40;99.90;;;;;;5075279;28;20037;-76
2022/12/03 11:34:19;;;;;;;1999.90;999.90;;;5.50;99.90;;;;;;5074821;28;20392;-74
2022/12/03 11:37:06;;;;;;;1999.90;999.90;;;5.50;99.90;;;;;;5075055;28;20028;-76
2022/12/03 11:39:51;;;;;;;1999.90;999.90;;;5.40;99.90;;;;;;5074470;28;20035;-74
2022/12/03 11:42:25;;;;;;;1999.90;999.90;;;5.50;99.90;;;;;;5073607;28;20029;-75
2022/12/03 11:45:07;;;;;;;1999.90;999.90;;;5.40;99.90;;;;;;5083170;28;20028;-75
2022/12/03 11:47:35;;;;;;;1999.90;999.90;;;5.50;99.90;;;;;;5094839;28;20020;-75
2022/12/03 11:50:11;;;;;;;1999.90;999.90;;;5.50;99.90;;;;;;5095016;28;20027;-74
2022/12/03 11:52:44;;;;;;;1999.90;999.90;;;5.60;99.90;;;;;;5095442;28;20032;-75
2022/12/03 11:55:38;;;;;;;1999.90;999.90;;;5.60;99.90;;;;;;5094694;28;20028;-74
2022/12/03 11:58:41;;;;;;;1999.90;999.90;;;5.60;99.90;;;;;;5093041;28;20045;-77
2022/12/03 12:01:08;;;;;;;1999.90;999.90;;;5.60;99.90;;;;;;5014113;28;20030;-75
2022/12/03 12:03:40;;;;;;;1999.90;999.90;;;5.60;99.90;;;;;;5011968;28;20052;-75
2022/12/03 12:06:10;;;;;;;1999.90;999.90;;;5.60;99.90;;;;;;5012493;28;20062;-75
2022/12/03 12:08:39;;;;;;;1999.90;999.90;;;5.60;99.90;;;;;;5012423;28;20042;-74
2022/12/03 12:11:19;;;;;;;1999.90;999.90;;;5.60;99.90;;;;;;5012567;28;20427;-76
2022/12/03 12:14:01;;;;;;;1999.90;999.90;;;5.60;99.90;;;;;;5012536;28;20034;-76
2022/12/03 12:16:38;;;;;;;1999.90;999.90;;;5.70;99.90;;;;;;5012495;28;20177;-76
2022/12/03 12:19:40;;;;;;;1999.90;999.90;;;5.70;99.90;;;;;;5012237;28;20030;-76
2022/12/03 12:22:17;;;;;;;1999.90;999.90;;;5.70;99.90;;;;;;5012119;28;20097;-76
2022/12/03 12:24:47;;;;;;;1999.90;999.90;;;5.70;99.90;;;;;;4994793;28;20026;-76
2022/12/03 12:27:19;;;;;;;1999.90;999.90;;;5.70;99.90;;;;;;5012655;28;20026;-75
2022/12/03 12:29:53;;;;;;;1999.90;999.90;;;5.70;99.90;;;;;;5007614;28;20037;-76
2022/12/03 12:32:26;;;;;;;1999.90;999.90;;;5.80;99.90;;;;;;5011989;28;20038;-76
2022/12/03 12:34:59;;;;;;;1999.90;999.90;;;5.80;99.90;;;;;;5038176;28;20040;-76